AirNav   Everest Fuels
 
 477 users online  

5GA3 Eagles Landing Airport
Williamson, Georgia, USA

GOING TO WILLIAMSON?


FAA INFORMATION EFFECTIVE 07 OCTOBER 2021

Location

FAA Identifier: 5GA3
Lat/Long: 33-09-36.4350N 084-21-54.7230W
33-09.607250N 084-21.912050W
33.1601208,-84.3652008
(estimated)
Elevation: 980 ft. / 299 m (estimated)
Variation: 02W (1985)
From city: 1 mile SW of WILLIAMSON, GA
Time zone: UTC -4 (UTC -5 during Standard Time)
Zip code: 30292

Airport Operations

Airport use: Private use. Permission required prior to landing
Activation date: 11/1978
Control tower: no
ARTCC: ATLANTA CENTER
FSS: MACON FLIGHT SERVICE STATION
Attendance: IREG
Wind indicator: yes, ARPT HAS 4 WIND INDICATORS.
Segmented circle: no

Airport Communications

WX AWOS-3 at 6A2 (6 nm NE): 119.750 (770-227-3934)
WX AWOS-3 at OPN (13 nm S): 133.975 (706-646-4123)
WX AWOS-3 at HMP (14 nm N): 124.825 (770-707-1719)
WX ASOS at FFC (16 nm NW): 118.525 (770-487-1610)

Nearby radio navigation aids

VOR radial/distance  VOR name  Freq  Var
ATLr178/28.4ATLANTA VORTAC116.9005W

 
NDB name  Hdg/Dist  Freq  Var  ID
PECAT149/10.431605WFFC ..-. ..-. -.-.
COWETA COUNTY111/18.423403WEQQ . --.- --.-
PINE MOUNTAIN056/31.827203WPIM .--. .. --

Airport Services

Runway Information

Runway 18/36

Dimensions: 3500 x 100 ft. / 1067 x 30 m
Surface: turf
RUNWAY 18  RUNWAY 36
Traffic pattern: leftright
Obstructions: 50 ft. trees, 400 ft. from runwaynone

Runway 13/31

Dimensions: 2500 x 100 ft. / 762 x 30 m
Surface: turf
RUNWAY 13  RUNWAY 31
Traffic pattern: leftright
Obstructions: 50 ft. trees, 400 ft. from runway, 1:1 slope to clearnone

Airport Ownership and Management from official FAA records

Ownership: Privately-owned
Owner: EAGLES LANDING HOA
P.O. BOX 159
WILLIAMSON, GA 30292-9774
Phone 770-229-2939
Manager: DAVID R. MOFFETT
720 LUFBERY CIRCLE
WILLIAMSON, GA 30292-9774
Phone 770-229-2939
770-335-3779.

Airport Operational Statistics

Aircraft based on the field: 29
Single engine airplanes: 26
Multi engine airplanes: 3
    

Additional Remarks

E111-2 ARPT USERS ARE BRIEFED ON THE OPERATIONAL AGREEMENTS & INSTRUCTED TO BE ALERT FOR & GIVE WAY TO ACFT OPERATING IN THE PEACH STATE GLIDERPORT TFC PAT.
FOR CD CTC ATLANTA APCH AT 678-364-6131.

Instrument Procedures

There are no published instrument procedures at 5GA3.

Some nearby airports with instrument procedures:

6A2 - Griffin-Spalding County Airport (6 nm NE)
KOPN - Thomaston-Upson County Airport (13 nm S)
KHMP - Atlanta Speedway Airport (14 nm N)
KFFC - Atlanta Regional Airport-Falcon Field (16 nm NW)
KCCO - Newnan Coweta County Airport (22 nm NW)
 
Loc | Ops | Rwys | IFR | FBO | Links
Com | Nav | Svcs | Stats | Notes
Area around 5GA3 (Eagles Landing Airport)
 
Road maps at: MapQuest Bing Google
 
Aerial photo
No photo
 
Sectional chart

 
Airport distance calculator
Flying to Eagles Landing Airport? Find the distance to fly.

From to 5GA3

Sunrise and sunset
Times for 16-Oct-2021
 Local
(UTC-4)
 Zulu
(UTC)
Morning civil twilight07:1911:19
Sunrise07:4411:44
Sunset19:0223:02
Evening civil twilight19:2723:27

Current date and time
Zulu (UTC)  16-Oct-2021 07:07:56
Local (UTC-4)  16-Oct-2021 03:07:56
 
METAR
K6A2 
6nm NE 
160655Z AUTO 23003KT 10SM CLR 19/18 A2995 RMK AO2
KOPN 
14nm S 
160655Z AUTO 00000KT 4SM BR CLR 18/18 A2996 RMK AO2
KHMP 
14nm N 
160655Z AUTO 00000KT 2SM BR VV007 17/17 A2997 RMK AO2 T01660165
KFFC 
15nm NW 
160653Z AUTO 00000KT 8SM CLR 18/17 A2994 RMK AO2 SLP133 T01780167
TAF
KATL 
29nm N 
160546Z 1606/1712 23006KT P6SM FEW250 FM161000 25006KT P6SM SCT025 BKN090 FM161200 29011G20KT P6SM VCSH SCT008 BKN012 BKN050 FM161500 32016G25KT P6SM SCT015 FM161800 32018G28KT P6SM FEW250 FM162300 33013G21KT P6SM SKC FM170300 33009KT P6SM SKC
NOTAMs
Click for the latest NOTAMs
NOTAMs are issued by the DoD/FAA and will open in a separate window not controlled by AirNav.

 

 
 

Would you like to see your business listed on this page?

 If your business provides an interesting product or service to pilots, flight crews, aircraft, or users of the Eagles Landing Airport, you should consider listing it here.  To start the listing process, click on the button below
 
Add a business
 

Other Pages about Eagles Landing Airport

Update a link
 
Copyright © AirNav, LLC. All rights reserved. Privacy Policy  Contact